createdAt,value
2018-03-17T00:00:39.999Z,4.25
2018-03-17T00:03:11.738Z,4.19
2018-03-17T00:05:42.988Z,4.13
2018-03-17T00:08:16.431Z,4.11
2018-03-17T00:10:48.278Z,4.07
2018-03-17T00:13:21.502Z,4.11
2018-03-17T00:15:53.246Z,4.08
2018-03-17T00:18:24.845Z,4.08
2018-03-17T00:20:55.972Z,3.86
2018-03-17T00:23:27.081Z,3.83
2018-03-17T00:25:58.686Z,3.87
2018-03-17T00:28:29.820Z,3.92
2018-03-17T00:31:02.246Z,3.92
2018-03-17T00:33:35.428Z,3.97
2018-03-17T00:36:06.603Z,3.95
2018-03-17T00:38:38.135Z,3.76
2018-03-17T00:41:09.371Z,3.81
2018-03-17T00:43:40.423Z,3.95
2018-03-17T00:46:12.387Z,3.96
2018-03-17T00:48:43.615Z,3.96
2018-03-17T00:51:14.991Z,3.79
2018-03-17T00:53:46.477Z,3.64
2018-03-17T00:56:17.843Z,3.65
2018-03-17T00:58:55.629Z,3.56
2018-03-17T01:01:41.574Z,3.49
2018-03-17T01:04:13.297Z,3.55
2018-03-17T01:06:44.891Z,3.50
2018-03-17T01:09:16.836Z,3.53
2018-03-17T01:11:48.339Z,3.41
2018-03-17T01:14:19.940Z,3.40
2018-03-17T01:16:57.176Z,3.41
2018-03-17T01:19:28.739Z,3.45
2018-03-17T01:22:01.205Z,3.50
2018-03-17T01:24:32.916Z,3.50
2018-03-17T01:27:05.564Z,3.48
2018-03-17T01:29:37.972Z,3.52
2018-03-17T01:32:09.497Z,3.46
2018-03-17T01:34:40.945Z,3.53
2018-03-17T01:37:13.546Z,3.47
2018-03-17T01:39:45.693Z,3.44
2018-03-17T01:42:18.319Z,3.51
2018-03-17T01:44:50.593Z,3.38
2018-03-17T01:47:22.673Z,3.41
2018-03-17T01:49:54.397Z,3.29
2018-03-17T01:52:28.014Z,3.21
2018-03-17T01:54:59.082Z,3.35
2018-03-17T01:57:32.149Z,3.26
2018-03-17T02:00:06.856Z,3.25
2018-03-17T02:02:40.012Z,3.29
2018-03-17T02:05:11.441Z,3.20
2018-03-17T02:07:43.925Z,3.15
2018-03-17T02:10:15.648Z,3.22
2018-03-17T02:12:47.324Z,3.25
2018-03-17T02:15:19.175Z,3.26
2018-03-17T02:17:50.565Z,3.14
2018-03-17T02:20:21.747Z,2.91
2018-03-17T02:22:53.091Z,2.90
2018-03-17T02:25:24.522Z,3.03
2018-03-17T02:27:56.159Z,3.12
2018-03-17T02:30:27.841Z,3.02
2018-03-17T02:32:59.478Z,3.12
2018-03-17T02:35:30.909Z,3.15
2018-03-17T02:38:02.932Z,2.97
2018-03-17T02:40:35.083Z,2.90
2018-03-17T02:43:06.367Z,2.81
2018-03-17T02:45:39.184Z,2.70
2018-03-17T02:48:11.106Z,2.69
2018-03-17T02:50:43.099Z,2.69
2018-03-17T02:53:15.714Z,2.60
2018-03-17T02:55:48.017Z,2.55
2018-03-17T02:58:19.337Z,2.56
2018-03-17T03:00:51.292Z,2.60
2018-03-17T03:03:24.599Z,2.52
2018-03-17T03:05:56.215Z,2.61
2018-03-17T03:08:27.718Z,2.63
2018-03-17T03:11:00.612Z,2.43
2018-03-17T03:13:32.270Z,2.39
2018-03-17T03:16:03.879Z,2.45
2018-03-17T03:18:35.692Z,2.29
2018-03-17T03:21:06.721Z,2.35
2018-03-17T03:23:37.632Z,2.26
2018-03-17T03:26:08.422Z,2.25
2018-03-17T03:28:39.223Z,2.16
2018-03-17T03:31:10.765Z,2.22
2018-03-17T03:33:42.015Z,2.20
2018-03-17T03:36:15.314Z,2.34
2018-03-17T03:38:46.435Z,2.33
2018-03-17T03:41:17.156Z,2.39
2018-03-17T03:43:48.516Z,2.21
2018-03-17T03:46:20.068Z,2.13
2018-03-17T03:48:51.320Z,2.08
2018-03-17T03:51:22.603Z,2.21
2018-03-17T03:53:53.998Z,2.27
2018-03-17T03:56:25.230Z,2.31
2018-03-17T03:58:56.282Z,2.27
2018-03-17T04:01:27.977Z,2.16
2018-03-17T04:03:58.673Z,2.17
2018-03-17T04:06:30.366Z,2.21
2018-03-17T04:09:01.583Z,1.98
2018-03-17T04:11:33.894Z,2.04
2018-03-17T04:14:04.762Z,2.13
2018-03-17T04:16:35.562Z,2.10
2018-03-17T04:19:09.814Z,2.05
2018-03-17T04:21:40.833Z,2.23
2018-03-17T04:24:18.133Z,2.17
2018-03-17T04:29:27.004Z,2.29
2018-03-17T04:31:57.986Z,2.34
2018-03-17T04:34:28.884Z,2.23
2018-03-17T04:36:59.455Z,2.13
2018-03-17T04:39:30.331Z,2.09
2018-03-17T04:42:00.906Z,1.91
2018-03-17T04:44:31.545Z,1.98
2018-03-17T04:47:02.271Z,1.95
2018-03-17T04:49:32.908Z,1.94
2018-03-17T04:52:03.986Z,1.97
2018-03-17T04:54:34.787Z,1.97
2018-03-17T04:57:07.530Z,1.89
2018-03-17T04:59:39.531Z,1.91
2018-03-17T05:02:10.608Z,1.87
2018-03-17T05:04:41.418Z,1.88
2018-03-17T05:07:12.182Z,1.80
2018-03-17T05:09:44.277Z,1.87
2018-03-17T05:12:15.378Z,1.95
2018-03-17T05:14:47.826Z,1.88
2018-03-17T05:17:19.526Z,1.69
2018-03-17T05:19:50.487Z,1.63
2018-03-17T05:22:21.225Z,1.61
2018-03-17T05:24:52.082Z,1.57
2018-03-17T05:27:31.389Z,1.44
2018-03-17T05:30:05.255Z,1.66
2018-03-17T05:32:47.686Z,1.62
2018-03-17T05:35:18.360Z,1.50
2018-03-17T05:37:49.223Z,1.48
2018-03-17T05:40:20.630Z,1.42
2018-03-17T05:42:52.684Z,1.46
2018-03-17T05:45:23.898Z,1.59
2018-03-17T05:47:55.589Z,1.49
2018-03-17T05:50:26.457Z,1.37
2018-03-17T05:52:58.128Z,1.39
2018-03-17T05:55:29.749Z,1.29
2018-03-17T05:58:00.932Z,1.34
2018-03-17T06:00:34.442Z,1.16
2018-03-17T06:03:05.430Z,1.07
2018-03-17T06:05:36.546Z,1.21
2018-03-17T06:08:08.769Z,1.32
2018-03-17T06:10:41.561Z,1.43
2018-03-17T06:13:13.784Z,1.47
2018-03-17T06:15:47.579Z,1.48
2018-03-17T06:18:20.316Z,1.32
2018-03-17T06:20:52.203Z,1.33
2018-03-17T06:23:24.438Z,1.42
2018-03-17T06:25:56.469Z,1.44
2018-03-17T06:28:27.894Z,1.34
2018-03-17T06:31:00.365Z,1.42
2018-03-17T06:33:32.077Z,1.55
2018-03-17T06:36:04.555Z,1.43
2018-03-17T06:38:36.686Z,1.32
2018-03-17T06:41:08.417Z,1.23
2018-03-17T06:43:39.860Z,1.19
2018-03-17T06:46:12.051Z,1.33
2018-03-17T06:48:45.084Z,1.39
2018-03-17T06:51:16.325Z,1.39
2018-03-17T06:53:47.960Z,1.45
2018-03-17T06:56:19.512Z,1.43
2018-03-17T06:58:51.911Z,1.40
2018-03-17T07:01:24.284Z,1.41
2018-03-17T07:03:55.631Z,1.40
2018-03-17T07:06:27.396Z,1.39
2018-03-17T07:08:59.995Z,1.28
2018-03-17T07:11:31.795Z,1.16
2018-03-17T07:14:04.177Z,1.09
2018-03-17T07:16:36.159Z,1.14
2018-03-17T07:19:08.504Z,1.10
2018-03-17T07:21:39.829Z,1.10
2018-03-17T07:24:13.332Z,1.16
2018-03-17T07:26:44.600Z,1.09
2018-03-17T07:29:18.434Z,1.07
2018-03-17T07:31:51.059Z,1.17
2018-03-17T07:34:22.539Z,1.23
2018-03-17T07:36:53.787Z,1.24
2018-03-17T07:39:25.301Z,1.31
2018-03-17T07:41:56.564Z,1.13
2018-03-17T07:44:27.977Z,1.05
2018-03-17T07:47:00.752Z,1.03
2018-03-17T07:49:32.848Z,1.02
2018-03-17T07:52:05.188Z,0.98
2018-03-17T07:54:36.348Z,1.14
2018-03-17T07:57:15.158Z,1.25
2018-03-17T07:59:47.178Z,1.26
2018-03-17T08:02:18.931Z,1.36
2018-03-17T08:04:56.579Z,1.41
2018-03-17T08:07:28.719Z,1.47
2018-03-17T08:10:03.099Z,1.23
2018-03-17T08:12:35.868Z,1.19
2018-03-17T08:15:15.209Z,1.15
2018-03-17T08:17:46.650Z,1.04
2018-03-17T08:20:17.859Z,0.95
2018-03-17T08:22:51.902Z,0.84
2018-03-17T08:25:23.655Z,0.79
2018-03-17T08:27:55.437Z,0.89
2018-03-17T08:30:27.230Z,0.91
2018-03-17T08:32:58.822Z,0.80
2018-03-17T08:35:31.285Z,0.63
2018-03-17T08:38:03.656Z,0.64
2018-03-17T08:40:37.722Z,0.72
2018-03-17T08:43:09.215Z,0.60
2018-03-17T08:45:40.473Z,0.67
2018-03-17T08:48:11.445Z,0.77
2018-03-17T08:50:43.591Z,0.87
2018-03-17T08:53:17.130Z,0.88
2018-03-17T08:55:48.383Z,0.96
2018-03-17T08:58:19.581Z,1.01
2018-03-17T09:00:51.082Z,0.92
2018-03-17T09:03:22.226Z,0.78
2018-03-17T09:05:54.047Z,0.70
2018-03-17T09:08:25.581Z,0.63
2018-03-17T09:10:58.065Z,0.74
2018-03-17T09:13:29.531Z,0.78
2018-03-17T09:16:02.526Z,0.82
2018-03-17T09:18:33.654Z,0.78
2018-03-17T09:21:05.993Z,0.70
2018-03-17T09:23:38.366Z,0.69
2018-03-17T09:26:11.048Z,0.76
2018-03-17T09:28:44.171Z,0.77
2018-03-17T09:31:16.491Z,0.86
2018-03-17T09:33:47.834Z,0.80
2018-03-17T09:36:19.916Z,0.73
2018-03-17T09:38:57.774Z,0.74
2018-03-17T09:41:30.165Z,0.78
2018-03-17T09:44:16.291Z,0.98
2018-03-17T09:46:48.165Z,1.14
2018-03-17T09:49:19.700Z,1.21
2018-03-17T09:51:57.905Z,1.12
2018-03-17T09:54:42.885Z,1.10
2018-03-17T09:57:22.632Z,1.11
2018-03-17T09:59:56.122Z,1.20
2018-03-17T10:02:27.827Z,1.02
2018-03-17T10:05:02.123Z,0.90
2018-03-17T10:07:39.395Z,0.91
2018-03-17T10:10:17.710Z,0.76
2018-03-17T10:12:49.669Z,0.80
2018-03-17T10:15:21.056Z,0.89
2018-03-17T10:17:52.939Z,1.02
2018-03-17T10:20:25.205Z,0.95
2018-03-17T10:22:59.113Z,0.93
2018-03-17T10:25:32.407Z,0.96
2018-03-17T10:28:05.536Z,0.98
2018-03-17T10:30:46.772Z,0.54
2018-03-17T10:33:22.820Z,0.82
2018-03-17T10:35:56.108Z,0.87
2018-03-17T10:38:28.129Z,0.79
2018-03-17T10:41:16.672Z,0.90
2018-03-17T10:43:48.735Z,1.17
2018-03-17T10:46:23.798Z,1.26
2018-03-17T10:48:55.230Z,1.02
2018-03-17T10:51:31.841Z,1.03
2018-03-17T10:54:03.970Z,1.16
2018-03-17T10:56:34.886Z,1.17
2018-03-17T10:59:06.395Z,1.11
2018-03-17T11:01:42.415Z,1.23
2018-03-17T11:04:13.516Z,1.35
2018-03-17T11:06:44.381Z,1.11
2018-03-17T11:09:15.306Z,1.13
2018-03-17T11:11:47.061Z,1.27
2018-03-17T11:14:18.000Z,1.12
2018-03-17T11:16:49.622Z,0.96
2018-03-17T11:19:21.141Z,1.02
2018-03-17T11:21:53.061Z,1.13
2018-03-17T11:24:24.952Z,0.93
2018-03-17T11:26:56.292Z,0.88
2018-03-17T11:29:28.981Z,0.91
2018-03-17T11:32:00.523Z,1.12
2018-03-17T11:34:32.016Z,1.04
2018-03-17T11:37:03.746Z,0.95
2018-03-17T11:39:34.992Z,1.22
2018-03-17T11:42:06.777Z,1.32
2018-03-17T11:44:38.171Z,1.22
2018-03-17T11:47:10.997Z,0.99
2018-03-17T11:49:42.991Z,1.01
2018-03-17T11:52:15.601Z,1.10
2018-03-17T11:54:46.921Z,1.15
2018-03-17T11:57:18.068Z,0.82
2018-03-17T11:59:48.994Z,0.85
2018-03-17T12:02:21.435Z,0.67
2018-03-17T12:04:52.357Z,1.05
2018-03-17T12:07:24.404Z,1.14
2018-03-17T12:09:57.598Z,1.39
2018-03-17T12:12:28.602Z,1.27
2018-03-17T12:17:39.234Z,1.23
2018-03-17T12:20:10.661Z,1.44
2018-03-17T12:22:42.120Z,1.39
2018-03-17T12:25:13.931Z,1.32
2018-03-17T12:27:44.803Z,1.28
2018-03-17T12:30:23.938Z,-6.71
2018-03-17T12:32:55.041Z,1.19
2018-03-17T12:35:29.212Z,1.38
2018-03-17T12:38:01.539Z,1.55
2018-03-17T12:40:32.997Z,1.43
2018-03-17T12:43:07.730Z,1.29
2018-03-17T12:45:39.936Z,1.24
2018-03-17T12:48:10.701Z,1.30
2018-03-17T12:50:41.731Z,1.15
2018-03-17T12:53:12.791Z,1.26
2018-03-17T12:55:44.181Z,1.15
2018-03-17T12:58:18.832Z,1.19
2018-03-17T13:03:37.190Z,1.52
2018-03-17T13:06:09.995Z,1.19
2018-03-17T13:08:41.297Z,1.29
2018-03-17T13:11:12.329Z,1.28
2018-03-17T13:13:44.371Z,1.52
2018-03-17T13:16:19.280Z,1.51
2018-03-17T13:18:50.615Z,1.59
2018-03-17T13:21:21.650Z,1.57
2018-03-17T13:23:55.855Z,1.63
2018-03-17T13:26:26.801Z,1.43
2018-03-17T13:28:58.879Z,1.42
2018-03-17T13:31:30.510Z,1.36
2018-03-17T13:34:05.503Z,1.24
2018-03-17T13:36:47.180Z,1.13
2018-03-17T13:39:18.660Z,1.18
2018-03-17T13:42:08.497Z,1.25
2018-03-17T13:44:40.547Z,1.28
2018-03-17T13:47:19.984Z,1.31
2018-03-17T13:49:56.441Z,1.28
2018-03-17T13:52:28.673Z,1.36
2018-03-17T13:55:00.221Z,1.43
2018-03-17T13:57:31.824Z,1.56
2018-03-17T14:00:51.155Z,1.44
2018-03-17T14:03:23.032Z,1.40
2018-03-17T14:05:54.905Z,1.45
2018-03-17T14:08:25.919Z,1.40
2018-03-17T14:11:01.045Z,1.26
2018-03-17T14:13:32.404Z,1.31
2018-03-17T14:16:06.475Z,1.17
2018-03-17T14:18:38.704Z,1.16
2018-03-17T14:21:16.391Z,1.18
2018-03-17T14:23:56.002Z,1.21
2018-03-17T14:26:27.375Z,1.37
2018-03-17T14:28:58.343Z,1.17
2018-03-17T14:31:30.153Z,1.22
2018-03-17T14:36:40.204Z,1.16
2018-03-17T14:39:14.680Z,1.04
2018-03-17T14:41:47.673Z,1.05
2018-03-17T14:44:20.762Z,0.90
2018-03-17T14:46:51.921Z,0.88
2018-03-17T14:49:24.655Z,0.99
2018-03-17T14:51:55.885Z,0.99
2018-03-17T14:54:26.933Z,0.94
2018-03-17T14:57:01.924Z,1.11
2018-03-17T14:59:32.830Z,0.97
2018-03-17T15:04:49.694Z,0.91
2018-03-17T15:07:31.697Z,0.77
2018-03-17T15:10:02.744Z,0.81
2018-03-17T15:12:34.718Z,0.92
2018-03-17T15:15:17.055Z,1.04
2018-03-17T15:17:51.795Z,1.16
2018-03-17T15:20:23.110Z,1.22
2018-03-17T15:22:54.121Z,0.98
2018-03-17T15:25:25.691Z,1.07
2018-03-17T15:27:57.430Z,1.06
2018-03-17T15:30:28.356Z,0.96
2018-03-17T15:33:00.417Z,0.86
2018-03-17T15:35:32.275Z,0.85
2018-03-17T15:38:03.792Z,0.93
2018-03-17T15:40:39.174Z,0.94
2018-03-17T15:43:11.936Z,0.94
2018-03-17T15:45:43.616Z,0.93
2018-03-17T15:48:15.996Z,0.90
2018-03-17T15:50:50.166Z,0.94
2018-03-17T15:53:22.666Z,0.91
2018-03-17T15:55:53.720Z,0.89
2018-03-17T15:58:25.081Z,1.08
2018-03-17T16:00:56.459Z,1.13
2018-03-17T16:03:27.428Z,0.94
2018-03-17T16:06:01.717Z,0.96
2018-03-17T16:08:33.688Z,0.96
2018-03-17T16:11:05.435Z,0.82
2018-03-17T16:13:36.997Z,0.77
2018-03-17T16:16:10.581Z,0.83
2018-03-17T16:18:41.996Z,0.64
2018-03-17T16:21:13.089Z,0.62
2018-03-17T16:23:43.841Z,0.87
2018-03-17T16:26:14.862Z,0.77
2018-03-17T16:28:46.766Z,0.68
2018-03-17T16:31:25.781Z,0.60
2018-03-17T16:33:56.887Z,0.63
2018-03-17T16:36:28.452Z,0.58
2018-03-17T16:39:00.412Z,0.64
2018-03-17T16:41:31.618Z,0.62
2018-03-17T16:44:04.296Z,0.61
2018-03-17T16:46:36.117Z,0.91
2018-03-17T16:49:07.954Z,0.79
2018-03-17T16:51:39.299Z,0.82
2018-03-17T16:54:11.681Z,0.87
2018-03-17T16:56:43.931Z,0.67
2018-03-17T16:59:23.551Z,0.58
2018-03-17T17:01:59.143Z,0.46
2018-03-17T17:04:34.214Z,0.54
2018-03-17T17:07:06.645Z,0.68
2018-03-17T17:09:40.553Z,0.68
2018-03-17T17:12:11.914Z,0.74
2018-03-17T17:14:45.979Z,0.83
2018-03-17T17:17:18.310Z,0.83
2018-03-17T17:19:50.159Z,0.87
2018-03-17T17:22:21.304Z,0.83
2018-03-17T17:24:52.803Z,0.82
2018-03-17T17:27:23.596Z,0.93
2018-03-17T17:29:55.031Z,0.82
2018-03-17T17:32:27.818Z,0.60
2018-03-17T17:35:00.510Z,0.62
2018-03-17T17:37:38.900Z,0.69
2018-03-17T17:40:13.766Z,0.69
2018-03-17T17:42:45.088Z,0.76
2018-03-17T17:45:20.395Z,0.86
2018-03-17T17:47:51.830Z,0.95
2018-03-17T17:50:24.845Z,0.72
2018-03-17T17:52:56.023Z,0.73
2018-03-17T17:55:27.863Z,0.81
2018-03-17T17:58:00.327Z,0.92
2018-03-17T18:00:37.054Z,0.96
2018-03-17T18:03:09.397Z,1.01
2018-03-17T18:05:42.431Z,1.11
2018-03-17T18:08:13.976Z,0.99
2018-03-17T18:10:47.838Z,1.09
2018-03-17T18:13:20.174Z,0.96
2018-03-17T18:15:53.061Z,0.93
2018-03-17T18:18:27.754Z,0.79
2018-03-17T18:21:01.916Z,0.90
2018-03-17T18:23:34.724Z,0.81
2018-03-17T18:26:08.211Z,0.72
2018-03-17T18:28:40.632Z,0.91
2018-03-17T18:31:12.896Z,0.95
2018-03-17T18:33:50.249Z,0.95
2018-03-17T18:39:07.884Z,0.89
2018-03-17T18:41:40.652Z,0.81
2018-03-17T18:44:16.505Z,0.76
2018-03-17T18:46:48.305Z,0.75
2018-03-17T18:49:21.456Z,0.82
2018-03-17T18:51:59.535Z,0.90
2018-03-17T18:54:33.617Z,0.98
2018-03-17T18:57:12.834Z,1.06
2018-03-17T18:59:47.812Z,1.16
2018-03-17T19:02:26.350Z,0.89
2018-03-17T19:05:01.948Z,0.95
2018-03-17T19:07:35.372Z,1.02
2018-03-17T19:10:07.624Z,0.93
2018-03-17T19:12:42.140Z,0.89
2018-03-17T19:15:20.853Z,1.05
2018-03-17T19:17:52.772Z,0.89
2018-03-17T19:20:26.374Z,0.82
2018-03-17T19:22:58.759Z,0.92
2018-03-17T19:25:30.038Z,0.83
2018-03-17T19:28:02.334Z,0.82
2018-03-17T19:30:37.651Z,0.82
2018-03-17T19:33:11.822Z,0.88
2018-03-17T19:35:46.704Z,0.78
2018-03-17T19:38:19.759Z,0.88
2018-03-17T19:40:52.624Z,0.97
2018-03-17T19:43:32.641Z,1.11
2018-03-17T19:46:04.557Z,1.02
2018-03-17T19:48:37.370Z,1.10
2018-03-17T19:51:10.573Z,1.14
2018-03-17T19:53:46.512Z,1.16
2018-03-17T19:56:17.798Z,1.21
2018-03-17T19:58:49.123Z,1.20
2018-03-17T20:01:20.471Z,1.26
2018-03-17T20:03:51.605Z,1.25
2018-03-17T20:06:28.267Z,0.96
2018-03-17T20:09:01.289Z,0.93
2018-03-17T20:11:34.463Z,0.91
2018-03-17T20:14:09.230Z,0.94
2018-03-17T20:16:55.936Z,0.90
2018-03-17T20:19:29.299Z,0.89
2018-03-17T20:22:00.558Z,0.99
2018-03-17T20:24:32.948Z,1.02
2018-03-17T20:27:05.243Z,0.91
2018-03-17T20:29:36.436Z,1.05
2018-03-17T20:32:08.567Z,1.19
2018-03-17T20:34:42.281Z,0.99
2018-03-17T20:37:20.103Z,1.08
2018-03-17T20:39:55.240Z,1.12
2018-03-17T20:42:28.217Z,1.17
2018-03-17T20:45:07.048Z,1.18
2018-03-17T20:47:38.703Z,1.21
2018-03-17T20:50:11.368Z,1.17
2018-03-17T20:52:43.759Z,1.22
2018-03-17T20:55:18.722Z,1.27
2018-03-17T20:57:50.809Z,1.27
2018-03-17T21:00:26.281Z,1.30
2018-03-17T21:02:57.356Z,1.30
2018-03-17T21:05:28.370Z,1.24
2018-03-17T21:08:00.183Z,1.22
2018-03-17T21:10:31.056Z,1.22
2018-03-17T21:13:06.045Z,1.00
2018-03-17T21:15:37.833Z,1.22
2018-03-17T21:18:09.354Z,1.26
2018-03-17T21:20:40.384Z,1.37
2018-03-17T21:23:11.375Z,1.20
2018-03-17T21:25:42.360Z,1.19
2018-03-17T21:28:16.875Z,1.12
2018-03-17T21:30:49.187Z,1.21
2018-03-17T21:33:31.071Z,1.14
2018-03-17T21:39:17.631Z,1.16
2018-03-17T21:41:50.387Z,1.12
2018-03-17T21:44:21.333Z,0.99
2018-03-17T21:46:54.084Z,0.94
2018-03-17T21:49:26.788Z,1.06
2018-03-17T21:51:58.085Z,1.00
2018-03-17T21:54:29.378Z,0.87
2018-03-17T21:57:01.724Z,0.90
2018-03-17T21:59:33.296Z,0.85
2018-03-17T22:02:06.126Z,1.03
2018-03-17T22:04:39.930Z,1.08
2018-03-17T22:07:12.076Z,1.15
2018-03-17T22:09:43.488Z,1.14
2018-03-17T22:12:15.506Z,1.07
2018-03-17T22:14:47.217Z,1.05
2018-03-17T22:17:18.786Z,1.02
2018-03-17T22:19:49.832Z,1.04
2018-03-17T22:22:21.095Z,0.96
2018-03-17T22:24:52.589Z,1.10
2018-03-17T22:30:24.015Z,1.13
2018-03-17T22:32:55.643Z,1.14
2018-03-17T22:35:27.848Z,1.19
2018-03-17T22:37:59.111Z,1.11
2018-03-17T22:40:30.104Z,1.23
2018-03-17T22:43:01.136Z,1.24
2018-03-17T22:45:33.728Z,1.25
2018-03-17T22:48:05.168Z,1.17
2018-03-17T22:50:36.090Z,1.13
2018-03-17T22:53:07.188Z,1.11
2018-03-17T22:55:38.483Z,1.19
2018-03-17T22:58:15.954Z,1.05
2018-03-17T23:00:47.935Z,1.04
2018-03-17T23:03:19.780Z,1.12
2018-03-17T23:05:51.415Z,1.12
2018-03-17T23:08:22.540Z,1.20
2018-03-17T23:10:53.884Z,1.16
2018-03-17T23:13:26.408Z,1.34
2018-03-17T23:15:58.822Z,1.43
2018-03-17T23:18:30.484Z,1.51
2018-03-17T23:21:03.265Z,1.52
2018-03-17T23:23:34.992Z,1.45
2018-03-17T23:26:05.829Z,1.26
2018-03-17T23:28:37.351Z,1.26
2018-03-17T23:31:09.400Z,1.20
2018-03-17T23:33:40.886Z,1.23
2018-03-17T23:36:13.434Z,1.20
2018-03-17T23:38:47.354Z,1.15
2018-03-17T23:41:19.284Z,1.06
2018-03-17T23:43:51.640Z,1.16
2018-03-17T23:46:23.726Z,1.30
2018-03-17T23:48:56.650Z,1.31
2018-03-17T23:51:29.519Z,1.28
2018-03-17T23:54:09.911Z,1.29
2018-03-17T23:56:41.073Z,1.32
2018-03-17T23:59:16.637Z,1.26
